Dades meteomassalio
Diari Summary for Octubre 27, 2017 Units:  English    Metric   Both
« Previous Day
Next Day »
Diari Semanal Mensual Anual Personalitzat
  Maxima: Minima: Mijana:
Temperatura: TemperatureC °F 5.0 °F 15 °F
Rosada: DewpointC °F -5.1 °F 6.4 °F
Humitat: Humidity % 40 % 58 %
Velocitat del vent: WindSpeedKMH mph 0.0 mph 20.4 mph
Racha vent: WindSpeedGustKMH mph - -
Vent:- - SSW
Pressio: PressurehPa in 1026.6 in -
Pluja: 0.0 in    
Historical Graphs
 
 
Tabular Data for Octubre 27, 2017
Time Temperature Dew Point Pressure Wind Wind Speed Wind Gust Humidity Rainfall Rate (Hourly) solar Conditions
TemperatureC °F DewpointC °F PressurehPa in Calm     Humidity % HourlyPrecipMM in SolarRadiationWatts/m^2 W/m2 Conditions
00:03 8.9 °F 3.5 °F 1030.7 in Calm     69 % 0.0 in 0.0 W/m2 CLR
00:08 8.3 °F 3.0 °F 1030.7 in Calm     69 % 0.0 in 0.0 W/m2 CLR
00:13 8.3 °F 3.2 °F 1030.7 in Calm     70 % 0.0 in 0.0 W/m2 CLR
00:18 8.3 °F 3.2 °F 1030.7 in Calm     70 % 0.0 in 0.0 W/m2 CLR
00:24 8.3 °F 3.6 °F 1030.7 in Calm     72 % 0.0 in 0.0 W/m2 CLR
00:29 8.3 °F 3.6 °F 1030.7 in Calm     72 % 0.0 in 0.0 W/m2 CLR
00:34 8.9 °F 4.1 °F 1030.7 in Calm     72 % 0.0 in 0.0 W/m2 CLR
00:39 8.3 °F 3.6 °F 1030.7 in Calm     72 % 0.0 in 0.0 W/m2 CLR
00:44 8.3 °F 3.6 °F 1030.7 in Calm     72 % 0.0 in 0.0 W/m2 CLR
00:49 8.3 °F 3.6 °F 1030.7 in Calm     72 % 0.0 in 0.0 W/m2 CLR
00:54 7.8 °F 3.1 °F 1030.7 in Calm     72 % 0.0 in 0.0 W/m2 CLR
00:59 7.8 °F 3.1 °F 1030.7 in Calm     72 % 0.0 in 0.0 W/m2 CLR
01:04 7.8 °F 3.4 °F 1030.7 in SE 3.7 mph 3.7 mph 74 % 0.0 in 0.0 W/m2 CLR
01:09 7.8 °F 3.4 °F 1030.7 in SSE 9.3 mph 9.3 mph 74 % 0.0 in 0.0 W/m2 CLR
01:14 8.3 °F 3.9 °F 1030.7 in Calm     74 % 0.0 in 0.0 W/m2 CLR
01:24 7.8 °F 3.4 °F 1030.7 in Calm     74 % 0.0 in 0.0 W/m2 CLR
01:29 7.8 °F 3.6 °F 1030.7 in Calm     75 % 0.0 in 0.0 W/m2 CLR
01:34 7.2 °F 3.3 °F 1030.7 in SE 6.4 mph 6.4 mph 76 % 0.0 in 0.0 W/m2 CLR
01:39 7.2 °F 3.1 °F 1030.7 in SE 7.4 mph 7.4 mph 75 % 0.0 in 0.0 W/m2 CLR
01:44 7.2 °F 2.9 °F 1030.7 in SE 4.8 mph 4.8 mph 74 % 0.0 in 0.0 W/m2 CLR
01:49 7.8 °F 3.4 °F 1030.7 in Calm     74 % 0.0 in 0.0 W/m2 CLR
01:54 7.8 °F 3.4 °F 1030.7 in SSE 8.0 mph 8.0 mph 74 % 0.0 in 0.0 W/m2 CLR
01:59 8.3 °F 3.8 °F 1030.7 in SSE 5.6 mph 5.6 mph 73 % 0.0 in 0.0 W/m2 CLR
02:04 8.3 °F 3.8 °F 1030.7 in South 7.4 mph 7.4 mph 73 % 0.0 in 0.0 W/m2 CLR
02:09 7.8 °F 3.2 °F 1030.7 in Calm     73 % 0.0 in 0.0 W/m2 CLR
02:14 7.8 °F 3.1 °F 1030.7 in Calm     72 % 0.0 in 0.0 W/m2 CLR
02:19 7.8 °F 3.1 °F 1030.7 in Calm     72 % 0.0 in 0.0 W/m2 CLR
02:24 7.8 °F 3.2 °F 1030.7 in Calm     73 % 0.0 in 0.0 W/m2 CLR
02:29 7.8 °F 3.2 °F 1030.7 in Calm     73 % 0.0 in 0.0 W/m2 CLR
02:34 7.8 °F 3.2 °F 1030.7 in Calm     73 % 0.0 in 0.0 W/m2 CLR
02:39 7.2 °F 2.9 °F 1030.7 in Calm     74 % 0.0 in 0.0 W/m2 CLR
02:44 7.2 °F 2.9 °F 1030.4 in Calm     74 % 0.0 in 0.0 W/m2 CLR
02:49 7.8 °F 3.4 °F 1030.4 in Calm     74 % 0.0 in 0.0 W/m2 CLR
02:54 7.8 °F 3.4 °F 1030.4 in Calm     74 % 0.0 in 0.0 W/m2 CLR
02:59 7.8 °F 3.4 °F 1030.4 in Calm     74 % 0.0 in 0.0 W/m2 CLR
03:04 7.8 °F 3.4 °F 1030.4 in Calm     74 % 0.0 in 0.0 W/m2 CLR
03:09 8.3 °F 3.9 °F 1030.4 in Calm     74 % 0.0 in 0.0 W/m2 CLR
03:14 8.3 °F 3.9 °F 1030.4 in Calm     74 % 0.0 in 0.0 W/m2 CLR
03:19 7.8 °F 3.4 °F 1030.4 in Calm     74 % 0.0 in 0.0 W/m2 CLR
03:24 7.8 °F 3.4 °F 1030.4 in Calm     74 % 0.0 in 0.0 W/m2 CLR
03:29 7.2 °F 2.9 °F 1030.4 in Calm     74 % 0.0 in 0.0 W/m2 CLR
03:34 7.2 °F 2.7 °F 1030.4 in Calm     73 % 0.0 in 0.0 W/m2 CLR
03:39 7.2 °F 2.7 °F 1030.4 in Calm     73 % 0.0 in 0.0 W/m2 CLR
03:44 7.8 °F 3.2 °F 1030.4 in Calm     73 % 0.0 in 0.0 W/m2 CLR
03:49 7.8 °F 3.2 °F 1030.4 in Calm     73 % 0.0 in 0.0 W/m2 CLR
03:54 7.8 °F 3.2 °F 1030.0 in Calm     73 % 0.0 in 0.0 W/m2 CLR
03:59 8.3 °F 3.8 °F 1030.0 in Calm     73 % 0.0 in 0.0 W/m2 CLR
04:04 7.8 °F 3.2 °F 1030.0 in Calm     73 % 0.0 in 0.0 W/m2 CLR
04:09 7.8 °F 3.2 °F 1030.0 in Calm     73 % 0.0 in 0.0 W/m2 CLR
04:14 7.8 °F 3.2 °F 1030.0 in Calm     73 % 0.0 in 0.0 W/m2 CLR
04:19 7.8 °F 3.2 °F 1030.0 in Calm     73 % 0.0 in 0.0 W/m2 CLR
04:24 7.8 °F 3.4 °F 1030.0 in Calm     74 % 0.0 in 0.0 W/m2 CLR
04:29 7.2 °F 2.9 °F 1030.0 in Calm     74 % 0.0 in 0.0 W/m2 CLR
04:34 7.2 °F 3.1 °F 1030.0 in Calm     75 % 0.0 in 0.0 W/m2 CLR
04:39 7.2 °F 3.1 °F 1029.7 in Calm     75 % 0.0 in 0.0 W/m2 CLR
04:44 7.2 °F 3.1 °F 1030.0 in Calm     75 % 0.0 in 0.0 W/m2 CLR
04:49 7.2 °F 3.1 °F 1029.7 in SE 1.6 mph   75 % 0.0 in 0.0 W/m2 CLR
04:54 7.2 °F 2.9 °F 1029.7 in ESE 5.6 mph 5.6 mph 74 % 0.0 in 0.0 W/m2 CLR
04:59 7.2 °F 2.9 °F 1029.7 in ESE 7.4 mph 7.4 mph 74 % 0.0 in 0.0 W/m2 CLR
05:04 7.2 °F 2.7 °F 1029.7 in SE 5.6 mph 5.6 mph 73 % 0.0 in 0.0 W/m2 CLR
05:09 7.2 °F 2.3 °F 1029.7 in Calm     71 % 0.0 in 0.0 W/m2 CLR
05:14 7.2 °F 1.9 °F 1029.7 in Calm     69 % 0.0 in 0.0 W/m2 CLR
05:19 6.7 °F 1.2 °F 1029.7 in Calm     68 % 0.0 in 0.0 W/m2 CLR
05:24 6.7 °F 1.2 °F 1029.7 in Calm     68 % 0.0 in 0.0 W/m2 CLR
05:29 6.7 °F 1.2 °F 1029.7 in Calm     68 % 0.0 in 0.0 W/m2 CLR
05:34 6.7 °F 1.2 °F 1029.7 in Calm     68 % 0.0 in 0.0 W/m2 CLR
05:39 6.7 °F 1.4 °F 1029.7 in Calm     69 % 0.0 in 0.0 W/m2 CLR
05:44 6.7 °F 1.4 °F 1029.7 in Calm     69 % 0.0 in 0.0 W/m2 CLR
05:49 6.7 °F 1.4 °F 1029.7 in Calm     69 % 0.0 in 0.0 W/m2 CLR
05:54 6.7 °F 1.6 °F 1029.7 in Calm     70 % 0.0 in 0.0 W/m2 CLR
05:59 6.7 °F 1.6 °F 1029.7 in Calm     70 % 0.0 in 0.0 W/m2 CLR
06:04 7.2 °F 2.1 °F 1029.7 in Calm     70 % 0.0 in 0.0 W/m2 CLR
06:09 7.2 °F 2.3 °F 1029.7 in Calm     71 % 0.0 in 0.0 W/m2 CLR
06:14 7.2 °F 2.3 °F 1029.7 in Calm     71 % 0.0 in 0.0 W/m2 CLR
06:19 6.7 °F 1.8 °F 1029.7 in Calm     71 % 0.0 in 0.0 W/m2 CLR
06:24 6.7 °F 1.8 °F 1029.7 in Calm     71 % 0.0 in 0.0 W/m2 CLR
06:29 6.1 °F 1.1 °F 1029.7 in Calm     70 % 0.0 in 0.0 W/m2 CLR
06:35 6.1 °F 0.8 °F 1029.7 in Calm     69 % 0.0 in 0.0 W/m2 CLR
06:40 6.1 °F 0.8 °F 1029.7 in Calm     69 % 0.0 in 0.0 W/m2 CLR
06:45 6.7 °F 1.4 °F 1029.7 in Calm     69 % 0.0 in 0.0 W/m2 CLR
06:50 7.2 °F 1.9 °F 1030.0 in Calm     69 % 0.0 in 0.0 W/m2 CLR
06:55 7.2 °F 2.1 °F 1030.0 in SSW 3.7 mph   70 % 0.0 in 0.0 W/m2 CLR
07:00 6.7 °F 1.6 °F 1029.7 in Calm     70 % 0.0 in 0.0 W/m2 CLR
07:05 6.7 °F 1.6 °F 1030.0 in SSE 1.6 mph 1.6 mph 70 % 0.0 in 0.0 W/m2 CLR
07:10 6.7 °F 1.6 °F 1030.0 in SSE 8.0 mph 8.0 mph 70 % 0.0 in 0.0 W/m2 CLR
07:15 6.7 °F 0.9 °F 1029.7 in SSE 7.4 mph 7.4 mph 67 % 0.0 in 0.0 W/m2 CLR
07:20 6.1 °F 0.0 °F 1029.7 in South 9.3 mph 9.3 mph 65 % 0.0 in 0.0 W/m2 CLR
07:25 6.1 °F -0.4 °F 1029.7 in South 5.6 mph 5.6 mph 63 % 0.0 in 0.0 W/m2 CLR
07:30 6.1 °F -0.8 °F 1029.7 in Calm     61 % 0.0 in 0.0 W/m2 CLR
07:35 6.1 °F -1.1 °F 1029.7 in Calm     60 % 0.0 in 0.0 W/m2 CLR
07:40 5.6 °F -1.8 °F 1029.7 in Calm     59 % 0.0 in 0.0 W/m2 CLR
07:45 5.6 °F -1.6 °F 1029.7 in Calm     60 % 0.0 in 0.0 W/m2 CLR
07:50 5.6 °F -1.6 °F 1029.7 in Calm   0.2 mph 60 % 0.0 in 0.0 W/m2 CLR
07:55 5.0 °F -2.1 °F 1029.7 in SSE 7.4 mph 7.4 mph 60 % 0.0 in 0.0 W/m2 CLR
08:00 5.0 °F -2.1 °F 1029.7 in South 5.6 mph 5.6 mph 60 % 0.0 in 0.0 W/m2 CLR
08:05 5.0 °F -2.3 °F 1029.7 in South 3.7 mph 3.7 mph 59 % 0.0 in 0.0 W/m2 CLR
08:10 5.0 °F -2.3 °F 1029.7 in SSE 5.6 mph 5.6 mph 59 % 0.0 in 0.0 W/m2 CLR
08:15 5.0 °F -2.3 °F 1029.7 in SSE 5.6 mph 5.6 mph 59 % 0.0 in 0.0 W/m2 OVC
08:20 5.0 °F -2.3 °F 1029.7 in South 7.4 mph 7.4 mph 59 % 0.0 in 0.0 W/m2 OVC
08:25 5.0 °F -2.3 °F 1029.7 in South 5.6 mph 5.6 mph 59 % 0.0 in 5.0 W/m2 OVC
08:30 5.0 °F -2.1 °F 1029.7 in South 11.1 mph 11.1 mph 60 % 0.0 in 7.0 W/m2 BKN
08:35 5.0 °F -2.3 °F 1029.7 in South 14.5 mph 14.5 mph 59 % 0.0 in 12.0 W/m2 BKN
08:40 5.0 °F -3.3 °F 1029.7 in SSW 16.7 mph 16.7 mph 55 % 0.0 in 16.0 W/m2 BKN
08:45 5.0 °F -4.3 °F 1029.7 in South 16.7 mph 16.7 mph 51 % 0.0 in 19.0 W/m2 BKN
08:50 5.0 °F -4.8 °F 1029.7 in SSW 22.2 mph 22.2 mph 49 % 0.0 in 25.0 W/m2 BKN
08:55 5.0 °F -5.1 °F 1029.7 in SSW 22.2 mph 22.2 mph 48 % 0.0 in 30.0 W/m2 BKN
09:00 5.6 °F -4.6 °F 1029.7 in SSW 19.3 mph 19.3 mph 48 % 0.0 in 37.0 W/m2 BKN
09:05 5.6 °F -4.9 °F 1029.7 in SSW 16.7 mph 16.7 mph 47 % 0.0 in 47.0 W/m2 SCT
09:10 6.1 °F -4.4 °F 1029.7 in SSW 18.5 mph 18.5 mph 47 % 0.0 in 56.0 W/m2 SCT
09:15 6.1 °F -4.7 °F 1030.0 in SSW 14.8 mph 14.8 mph 46 % 0.0 in 69.0 W/m2 FEW
09:20 6.1 °F -4.7 °F 1030.0 in SSW 9.7 mph 9.7 mph 46 % 0.0 in 70.0 W/m2 FEW
09:25 6.7 °F -4.2 °F 1030.0 in SSW 16.7 mph 16.7 mph 46 % 0.0 in 93.0 W/m2 FEW
09:30 7.2 °F -3.3 °F 1029.7 in SSW 22.5 mph 22.5 mph 47 % 0.0 in 107.0 W/m2 CLR
09:35 7.2 °F -3.7 °F 1030.0 in South 22.2 mph 22.2 mph 46 % 0.0 in 125.0 W/m2 CLR
09:40 8.9 °F -2.1 °F 1030.0 in SW 25.9 mph 25.9 mph 46 % 0.0 in 141.0 W/m2 CLR
09:45 11.1 °F -0.4 °F 1030.0 in SSW 31.5 mph 31.5 mph 45 % 0.0 in 156.0 W/m2 CLR
09:50 12.8 °F 1.1 °F 1030.0 in SSW 24.1 mph 24.1 mph 45 % 0.0 in 141.0 W/m2 CLR
09:55 16.1 °F 4.2 °F 1030.0 in SW 25.9 mph 25.9 mph 45 % 0.0 in 158.0 W/m2 CLR
10:00 17.2 °F 5.2 °F 1030.0 in South 20.4 mph 20.4 mph 45 % 0.0 in 139.0 W/m2 CLR
10:05 17.8 °F 5.7 °F 1030.0 in South 14.8 mph 14.8 mph 45 % 0.0 in 220.0 W/m2 CLR
10:10 18.3 °F 6.2 °F 1030.0 in SSW 18.5 mph 18.5 mph 45 % 0.0 in 234.0 W/m2 CLR
10:15 18.3 °F 6.2 °F 1030.0 in South 11.1 mph 11.1 mph 45 % 0.0 in 246.0 W/m2 CLR
10:20 18.3 °F 6.5 °F 1030.0 in SW 13.0 mph 13.0 mph 46 % 0.0 in 260.0 W/m2 CLR
10:25 18.9 °F 7.0 °F 1030.0 in SSW 17.7 mph 17.7 mph 46 % 0.0 in 274.0 W/m2 CLR
10:30 18.9 °F 6.7 °F 1030.0 in SSW 29.6 mph 29.6 mph 45 % 0.0 in 288.0 W/m2 CLR
10:35 19.4 °F 7.2 °F 1030.0 in SSW 24.1 mph 24.1 mph 45 % 0.0 in 302.0 W/m2 CLR
10:40 19.4 °F 7.2 °F 1030.0 in SSW 33.3 mph 33.3 mph 45 % 0.0 in 316.0 W/m2 CLR
10:45 19.4 °F 7.2 °F 1030.0 in SW 27.8 mph 27.8 mph 45 % 0.0 in 329.0 W/m2 CLR
10:50 20.0 °F 7.7 °F 1030.0 in SW 20.9 mph 20.9 mph 45 % 0.0 in 341.0 W/m2 CLR
10:55 20.0 °F 7.7 °F 1030.0 in SSW 22.2 mph 22.2 mph 45 % 0.0 in 352.0 W/m2 CLR
11:00 20.0 °F 7.7 °F 1029.7 in SW 31.5 mph 31.5 mph 45 % 0.0 in 367.0 W/m2 CLR
11:05 20.6 °F 7.9 °F 1029.7 in SW 24.1 mph 24.1 mph 44 % 0.0 in 378.0 W/m2 CLR
11:10 20.6 °F 7.9 °F 1029.7 in SSW 27.8 mph 27.8 mph 44 % 0.0 in 387.0 W/m2 CLR
11:15 20.6 °F 7.9 °F 1029.7 in SW 20.4 mph 20.4 mph 44 % 0.0 in 397.0 W/m2 CLR
11:20 21.1 °F 8.4 °F 1029.7 in SSW 29.6 mph 29.6 mph 44 % 0.0 in 410.0 W/m2 CLR
11:25 21.1 °F 8.4 °F 1029.7 in SW 24.1 mph 24.1 mph 44 % 0.0 in 422.0 W/m2 CLR
11:30 21.1 °F 8.1 °F 1029.7 in South 31.5 mph 31.5 mph 43 % 0.0 in 434.0 W/m2 CLR
11:35 21.1 °F 7.7 °F 1029.7 in SSW 22.5 mph 22.5 mph 42 % 0.0 in 443.0 W/m2 CLR
11:40 21.7 °F 8.2 °F 1029.7 in SW 35.2 mph 35.2 mph 42 % 0.0 in 454.0 W/m2 CLR
11:45 22.2 °F 8.3 °F 1029.3 in WSW 37.0 mph 37.0 mph 41 % 0.0 in 466.0 W/m2 CLR
11:50 22.2 °F 7.9 °F 1029.7 in SW 25.9 mph 25.9 mph 40 % 0.0 in 473.0 W/m2 CLR
11:55 22.2 °F 7.9 °F 1029.7 in SW 33.3 mph 33.3 mph 40 % 0.0 in 482.0 W/m2 CLR
12:00 22.8 °F 8.4 °F 1029.3 in SW 37.0 mph 37.0 mph 40 % 0.0 in 490.0 W/m2 CLR
12:05 22.8 °F 8.4 °F 1029.7 in SW 35.2 mph 35.2 mph 40 % 0.0 in 501.0 W/m2 CLR
12:10 22.8 °F 8.4 °F 1029.7 in SW 20.9 mph 20.9 mph 40 % 0.0 in 508.0 W/m2 CLR
12:15 23.3 °F 8.9 °F 1029.7 in WSW 35.4 mph 35.4 mph 40 % 0.0 in 512.0 W/m2 CLR
12:20 23.3 °F 8.9 °F 1029.7 in SSW 27.8 mph 27.8 mph 40 % 0.0 in 519.0 W/m2 CLR
12:25 23.3 °F 8.9 °F 1029.3 in West 31.5 mph 31.5 mph 40 % 0.0 in 526.0 W/m2 CLR
12:30 23.3 °F 8.9 °F 1029.3 in SSW 42.6 mph 42.6 mph 40 % 0.0 in 531.0 W/m2 CLR
12:36 23.3 °F 9.3 °F 1029.3 in WSW 27.8 mph 27.8 mph 41 % 0.0 in 538.0 W/m2 CLR
12:41 23.3 °F 9.3 °F 1029.3 in WSW 40.7 mph 40.7 mph 41 % 0.0 in 540.0 W/m2 CLR
12:46 23.9 °F 9.8 °F 1029.3 in WSW 44.4 mph 44.4 mph 41 % 0.0 in 541.0 W/m2 CLR
12:51 23.9 °F 9.8 °F 1029.3 in SSW 38.9 mph 38.9 mph 41 % 0.0 in 548.0 W/m2 CLR
12:56 23.9 °F 9.8 °F 1029.0 in SSW 42.6 mph 42.6 mph 41 % 0.0 in 550.0 W/m2 CLR
13:01 23.9 °F 9.8 °F 1029.0 in SW 31.5 mph 31.5 mph 41 % 0.0 in 555.0 W/m2 CLR
13:06 23.9 °F 9.8 °F 1029.0 in SW 35.2 mph 35.2 mph 41 % 0.0 in 559.0 W/m2 CLR
13:11 23.9 °F 9.8 °F 1029.0 in SSW 40.7 mph 40.7 mph 41 % 0.0 in 559.0 W/m2 CLR
13:16 23.9 °F 9.8 °F 1029.0 in SW 31.5 mph 31.5 mph 41 % 0.0 in 561.0 W/m2 CLR
13:21 23.9 °F 9.8 °F 1028.7 in SSW 31.5 mph 31.5 mph 41 % 0.0 in 561.0 W/m2 CLR
13:26 23.9 °F 9.8 °F 1028.7 in SSW 35.4 mph 35.4 mph 41 % 0.0 in 564.0 W/m2 CLR
13:31 24.4 °F 10.3 °F 1028.7 in SSW 50.0 mph 50.0 mph 41 % 0.0 in 555.0 W/m2 CLR
13:36 24.4 °F 10.3 °F 1028.7 in SW 33.3 mph 33.3 mph 41 % 0.0 in 566.0 W/m2 CLR
13:41 24.4 °F 10.3 °F 1028.3 in SW 38.9 mph 38.9 mph 41 % 0.0 in 570.0 W/m2 CLR
13:46 24.4 °F 10.3 °F 1028.3 in SSW 38.9 mph 38.9 mph 41 % 0.0 in 570.0 W/m2 CLR
13:51 24.4 °F 10.3 °F 1028.3 in SW 42.6 mph 42.6 mph 41 % 0.0 in 559.0 W/m2 CLR
13:56 24.4 °F 10.3 °F 1028.3 in WSW 50.0 mph 50.0 mph 41 % 0.0 in 563.0 W/m2 CLR
14:01 24.4 °F 10.3 °F 1028.3 in SSW 44.4 mph 44.4 mph 41 % 0.0 in 559.0 W/m2 CLR
14:06 24.4 °F 10.7 °F 1028.0 in SSW 42.6 mph 42.6 mph 42 % 0.0 in 559.0 W/m2 CLR
14:11 24.4 °F 10.3 °F 1028.0 in SW 42.6 mph 42.6 mph 41 % 0.0 in 563.0 W/m2 CLR
14:16 24.4 °F 10.3 °F 1028.0 in SW 37.0 mph 37.0 mph 41 % 0.0 in 559.0 W/m2 CLR
14:21 24.4 °F 10.3 °F 1027.7 in WSW 31.5 mph 31.5 mph 41 % 0.0 in 559.0 W/m2 CLR
14:26 24.4 °F 10.3 °F 1027.7 in SW 38.9 mph 38.9 mph 41 % 0.0 in 552.0 W/m2 CLR
14:31 24.4 °F 10.3 °F 1027.7 in SW 50.0 mph 50.0 mph 41 % 0.0 in 550.0 W/m2 CLR
14:36 24.4 °F 10.3 °F 1027.7 in SW 42.6 mph 42.6 mph 41 % 0.0 in 540.0 W/m2 CLR
14:41 24.4 °F 10.3 °F 1027.7 in WSW 46.3 mph 46.3 mph 41 % 0.0 in 536.0 W/m2 CLR
14:46 24.4 °F 10.3 °F 1027.7 in SW 44.4 mph 44.4 mph 41 % 0.0 in 529.0 W/m2 CLR
14:56 24.4 °F 10.3 °F 1027.3 in SW 37.0 mph 37.0 mph 41 % 0.0 in 527.0 W/m2 CLR
15:01 24.4 °F 10.3 °F 1027.3 in SW 33.3 mph 33.3 mph 41 % 0.0 in 522.0 W/m2 CLR
15:06 24.4 °F 10.7 °F 1027.3 in SW 42.6 mph 42.6 mph 42 % 0.0 in 519.0 W/m2 CLR
15:11 24.4 °F 11.1 °F 1027.3 in West 40.7 mph 40.7 mph 43 % 0.0 in 508.0 W/m2 CLR
15:16 23.9 °F 10.9 °F 1027.3 in WSW 46.3 mph 46.3 mph 44 % 0.0 in 501.0 W/m2 CLR
15:21 23.9 °F 11.2 °F 1027.0 in WSW 40.7 mph 40.7 mph 45 % 0.0 in 490.0 W/m2 CLR
15:26 23.9 °F 11.2 °F 1027.0 in SSW 37.0 mph 37.0 mph 45 % 0.0 in 489.0 W/m2 CLR
15:31 23.9 °F 11.2 °F 1027.0 in SSW 38.9 mph 38.9 mph 45 % 0.0 in 480.0 W/m2 CLR
15:36 23.9 °F 11.6 °F 1027.0 in SW 33.3 mph 33.3 mph 46 % 0.0 in 473.0 W/m2 CLR
15:41 23.9 °F 11.9 °F 1027.0 in WSW 40.7 mph 40.7 mph 47 % 0.0 in 464.0 W/m2 CLR
15:46 23.3 °F 11.7 °F 1027.0 in WSW 35.2 mph 35.2 mph 48 % 0.0 in 448.0 W/m2 CLR
15:51 23.3 °F 11.7 °F 1027.0 in SW 38.9 mph 38.9 mph 48 % 0.0 in 439.0 W/m2 CLR
15:56 23.3 °F 11.7 °F 1027.0 in SW 27.8 mph 27.8 mph 48 % 0.0 in 432.0 W/m2 CLR
16:01 23.3 °F 11.7 °F 1027.0 in WSW 24.1 mph 24.1 mph 48 % 0.0 in 420.0 W/m2 CLR
16:06 23.3 °F 11.7 °F 1027.0 in West 32.2 mph 32.2 mph 48 % 0.0 in 411.0 W/m2 CLR
16:11 23.3 °F 11.7 °F 1026.6 in West 27.4 mph 27.4 mph 48 % 0.0 in 397.0 W/m2 CLR
16:16 23.3 °F 11.7 °F 1027.0 in SW 38.9 mph 38.9 mph 48 % 0.0 in 388.0 W/m2 CLR
16:21 23.3 °F 11.7 °F 1027.0 in West 35.2 mph 35.2 mph 48 % 0.0 in 380.0 W/m2 CLR
16:26 23.3 °F 11.7 °F 1027.0 in WSW 31.5 mph 31.5 mph 48 % 0.0 in 366.0 W/m2 CLR
16:31 22.8 °F 11.2 °F 1027.0 in WSW 33.8 mph 33.8 mph 48 % 0.0 in 353.0 W/m2 CLR
16:36 22.8 °F 11.2 °F 1027.0 in West 27.8 mph 27.8 mph 48 % 0.0 in 338.0 W/m2 CLR
16:41 22.8 °F 11.5 °F 1026.6 in SW 29.6 mph 29.6 mph 49 % 0.0 in 334.0 W/m2 CLR
16:46 22.8 °F 11.5 °F 1027.0 in WSW 40.7 mph 40.7 mph 49 % 0.0 in 323.0 W/m2 CLR
16:51 22.8 °F 11.5 °F 1027.0 in SW 37.0 mph 37.0 mph 49 % 0.0 in 306.0 W/m2 CLR
17:01 22.8 °F 11.5 °F 1027.0 in WSW 48.1 mph 48.1 mph 49 % 0.0 in 281.0 W/m2 CLR
17:06 22.2 °F 11.3 °F 1027.0 in WSW 50.0 mph 50.0 mph 50 % 0.0 in 267.0 W/m2 CLR
17:11 22.2 °F 11.3 °F 1027.0 in WNW 40.7 mph 40.7 mph 50 % 0.0 in 251.0 W/m2 CLR
17:16 22.2 °F 11.3 °F 1027.0 in WSW 40.2 mph 40.2 mph 50 % 0.0 in 236.0 W/m2 CLR
17:21 22.2 °F 11.6 °F 1027.0 in West 51.8 mph 51.8 mph 51 % 0.0 in 220.0 W/m2 CLR
17:26 22.2 °F 11.6 °F 1027.0 in SW 45.1 mph 45.1 mph 51 % 0.0 in 209.0 W/m2 CLR
17:31 21.7 °F 11.1 °F 1027.0 in West 27.8 mph 27.8 mph 51 % 0.0 in 186.0 W/m2 CLR
17:32 21.7 °F 11.1 °F 1027.0 in SSW 27.4 mph 27.4 mph 51 % 0.0 in 186.0 W/m2 CLR
17:37 21.7 °F 11.1 °F 1027.0 in SW 33.3 mph 33.3 mph 51 % 0.0 in 171.0 W/m2 CLR
17:42 21.7 °F 11.1 °F 1027.0 in WSW 50.0 mph 50.0 mph 51 % 0.0 in 155.0 W/m2 CLR
17:47 21.7 °F 11.4 °F 1027.0 in SSW 18.5 mph 18.5 mph 52 % 0.0 in 139.0 W/m2 CLR
17:52 21.7 °F 11.4 °F 1027.0 in SW 35.2 mph 35.2 mph 52 % 0.0 in 127.0 W/m2 CLR
17:57 21.1 °F 10.9 °F 1027.0 in WSW 33.8 mph 33.8 mph 52 % 0.0 in 111.0 W/m2 CLR
18:02 21.1 °F 11.2 °F 1027.0 in SW 33.8 mph 33.8 mph 53 % 0.0 in 95.0 W/m2 CLR
18:07 21.1 °F 11.2 °F 1027.3 in West 31.5 mph 31.5 mph 53 % 0.0 in 77.0 W/m2 FEW
18:12 21.1 °F 10.9 °F 1027.3 in SW 46.3 mph 46.3 mph 52 % 0.0 in 69.0 W/m2 FEW
18:17 20.6 °F 10.7 °F 1027.3 in SW 37.0 mph 37.0 mph 53 % 0.0 in 53.0 W/m2 SCT
18:22 20.6 °F 10.7 °F 1027.3 in WSW 33.8 mph 33.8 mph 53 % 0.0 in 42.0 W/m2 BKN
18:27 20.6 °F 10.9 °F 1027.3 in WSW 37.0 mph 37.0 mph 54 % 0.0 in 40.0 W/m2 BKN
18:32 20.0 °F 10.4 °F 1027.7 in WSW 42.6 mph 42.6 mph 54 % 0.0 in 30.0 W/m2 BKN
18:37 20.0 °F 10.4 °F 1027.7 in WSW 29.6 mph 29.6 mph 54 % 0.0 in 23.0 W/m2 BKN
18:42 20.0 °F 10.4 °F 1027.7 in SW 31.5 mph 31.5 mph 54 % 0.0 in 19.0 W/m2 BKN
18:47 20.0 °F 10.7 °F 1027.7 in SW 22.2 mph 22.2 mph 55 % 0.0 in 14.0 W/m2 BKN
18:52 19.4 °F 10.2 °F 1027.7 in West 30.6 mph 30.6 mph 55 % 0.0 in 11.0 W/m2 BKN
18:57 19.4 °F 10.2 °F 1027.7 in SSW 35.2 mph 35.2 mph 55 % 0.0 in 7.0 W/m2 BKN
19:02 19.4 °F 10.2 °F 1027.7 in West 37.0 mph 37.0 mph 55 % 0.0 in 5.0 W/m2 OVC
19:07 19.4 °F 10.4 °F 1027.7 in West 31.5 mph 31.5 mph 56 % 0.0 in 0.0 W/m2 OVC
19:12 18.9 °F 9.9 °F 1028.0 in WSW 33.3 mph 33.3 mph 56 % 0.0 in 0.0 W/m2 CLR
19:17 18.9 °F 9.9 °F 1028.0 in WSW 31.5 mph 31.5 mph 56 % 0.0 in 0.0 W/m2 CLR
19:22 18.9 °F 10.2 °F 1028.0 in SW 37.0 mph 37.0 mph 57 % 0.0 in 0.0 W/m2 CLR
19:27 18.9 °F 10.2 °F 1028.0 in WSW 38.9 mph 38.9 mph 57 % 0.0 in 0.0 W/m2 CLR
19:32 18.9 °F 10.2 °F 1028.0 in SW 33.3 mph 33.3 mph 57 % 0.0 in 0.0 W/m2 CLR
19:37 18.9 °F 10.4 °F 1028.0 in WSW 29.6 mph 29.6 mph 58 % 0.0 in 0.0 W/m2 CLR
19:42 18.9 °F 10.4 °F 1028.0 in SSW 25.9 mph 25.9 mph 58 % 0.0 in 0.0 W/m2 CLR
19:47 18.3 °F 9.9 °F 1028.0 in SW 33.3 mph 33.3 mph 58 % 0.0 in 0.0 W/m2 CLR
19:52 18.3 °F 9.9 °F 1028.0 in SW 40.7 mph 40.7 mph 58 % 0.0 in 0.0 W/m2 CLR
19:57 18.3 °F 10.2 °F 1028.3 in SSW 18.5 mph 18.5 mph 59 % 0.0 in 0.0 W/m2 CLR
20:02 18.3 °F 10.2 °F 1028.3 in South 18.5 mph 18.5 mph 59 % 0.0 in 0.0 W/m2 CLR
20:07 18.3 °F 10.2 °F 1028.3 in SSW 29.6 mph 29.6 mph 59 % 0.0 in 0.0 W/m2 CLR
20:12 18.3 °F 10.4 °F 1028.3 in SW 29.0 mph 29.0 mph 60 % 0.0 in 0.0 W/m2 CLR
20:17 17.8 °F 9.9 °F 1028.3 in SW 27.8 mph 27.8 mph 60 % 0.0 in 0.0 W/m2 CLR
20:22 18.3 °F 10.4 °F 1028.7 in SSW 22.2 mph 22.2 mph 60 % 0.0 in 0.0 W/m2 CLR
20:27 18.3 °F 10.4 °F 1028.7 in SSW 25.9 mph 25.9 mph 60 % 0.0 in 0.0 W/m2 CLR
20:32 17.8 °F 9.9 °F 1028.7 in SW 42.6 mph 42.6 mph 60 % 0.0 in 0.0 W/m2 CLR
20:37 18.3 °F 10.4 °F 1028.7 in SSW 25.9 mph 25.9 mph 60 % 0.0 in 0.0 W/m2 CLR
20:42 17.8 °F 9.9 °F 1028.7 in SW 31.5 mph 31.5 mph 60 % 0.0 in 0.0 W/m2 CLR
20:47 17.8 °F 10.2 °F 1028.7 in SSW 24.1 mph 24.1 mph 61 % 0.0 in 0.0 W/m2 CLR
20:52 17.8 °F 10.2 °F 1028.7 in SSW 31.5 mph 31.5 mph 61 % 0.0 in 0.0 W/m2 CLR
20:57 17.8 °F 10.2 °F 1028.7 in SW 35.2 mph 35.2 mph 61 % 0.0 in 0.0 W/m2 CLR
21:02 17.8 °F 10.4 °F 1028.7 in SW 24.1 mph 24.1 mph 62 % 0.0 in 0.0 W/m2 CLR
21:07 17.2 °F 9.9 °F 1028.7 in WSW 37.0 mph 37.0 mph 62 % 0.0 in 0.0 W/m2 CLR
21:12 17.2 °F 9.9 °F 1028.7 in WSW 31.5 mph 31.5 mph 62 % 0.0 in 0.0 W/m2 CLR
21:17 17.2 °F 9.9 °F 1028.7 in WSW 29.6 mph 29.6 mph 62 % 0.0 in 0.0 W/m2 CLR
21:22 17.2 °F 10.1 °F 1028.7 in SW 31.5 mph 31.5 mph 63 % 0.0 in 0.0 W/m2 CLR
21:27 17.2 °F 10.1 °F 1028.7 in SSW 24.1 mph 24.1 mph 63 % 0.0 in 0.0 W/m2 CLR
21:32 17.2 °F 10.3 °F 1028.7 in SSW 38.9 mph 38.9 mph 64 % 0.0 in 0.0 W/m2 CLR
21:37 17.2 °F 10.3 °F 1028.7 in SSW 27.8 mph 27.8 mph 64 % 0.0 in 0.0 W/m2 CLR
21:42 17.2 °F 10.3 °F 1028.7 in SSW 29.6 mph 29.6 mph 64 % 0.0 in 0.0 W/m2 CLR
21:48 17.2 °F 10.3 °F 1028.7 in SSW 25.7 mph 25.7 mph 64 % 0.0 in 0.0 W/m2 CLR
21:53 17.2 °F 10.3 °F 1028.7 in SSW 33.3 mph 33.3 mph 64 % 0.0 in 0.0 W/m2 CLR
21:58 17.2 °F 10.3 °F 1028.7 in South 25.9 mph 25.9 mph 64 % 0.0 in 0.0 W/m2 CLR
22:03 16.7 °F 9.8 °F 1029.0 in SSW 16.7 mph 16.7 mph 64 % 0.0 in 0.0 W/m2 CLR
22:08 16.7 °F 10.1 °F 1029.0 in SSW 27.8 mph 27.8 mph 65 % 0.0 in 0.0 W/m2 CLR
22:13 16.7 °F 10.1 °F 1029.0 in SW 24.1 mph 24.1 mph 65 % 0.0 in 0.0 W/m2 CLR
22:18 16.7 °F 10.1 °F 1029.0 in SSW 24.1 mph 24.1 mph 65 % 0.0 in 0.0 W/m2 CLR
22:23 16.7 °F 10.1 °F 1029.0 in SW 22.2 mph 22.2 mph 65 % 0.0 in 0.0 W/m2 CLR
22:28 16.7 °F 10.1 °F 1029.0 in SSW 27.8 mph 27.8 mph 65 % 0.0 in 0.0 W/m2 CLR
22:33 16.7 °F 10.1 °F 1029.0 in SSW 31.5 mph 31.5 mph 65 % 0.0 in 0.0 W/m2 CLR
22:38 16.7 °F 10.1 °F 1029.0 in SSW 31.5 mph 31.5 mph 65 % 0.0 in 0.0 W/m2 CLR
22:43 16.7 °F 10.1 °F 1029.0 in SSW 27.8 mph 27.8 mph 65 % 0.0 in 0.0 W/m2 CLR
22:48 16.7 °F 10.1 °F 1029.0 in SSW 29.6 mph 29.6 mph 65 % 0.0 in 0.0 W/m2 CLR
22:53 16.7 °F 10.1 °F 1029.0 in South 22.2 mph 22.2 mph 65 % 0.0 in 0.0 W/m2 CLR
22:58 16.1 °F 9.5 °F 1029.0 in SSW 18.5 mph 18.5 mph 65 % 0.0 in 0.0 W/m2 CLR
23:03 16.1 °F 9.5 °F 1029.0 in SSW 30.6 mph 30.6 mph 65 % 0.0 in 0.0 W/m2 CLR
23:08 16.1 °F 9.5 °F 1029.3 in SSW 19.3 mph 19.3 mph 65 % 0.0 in 0.0 W/m2 CLR
23:13 16.1 °F 9.8 °F 1029.0 in SSW 25.9 mph 25.9 mph 66 % 0.0 in 0.0 W/m2 CLR
23:18 16.1 °F 9.5 °F 1029.0 in SSW 22.5 mph 22.5 mph 65 % 0.0 in 0.0 W/m2 CLR
23:23 16.1 °F 9.5 °F 1029.0 in SSW 18.5 mph 18.5 mph 65 % 0.0 in 0.0 W/m2 CLR
23:28 16.1 °F 9.5 °F 1029.0 in SSW 18.5 mph 18.5 mph 65 % 0.0 in 0.0 W/m2 CLR
23:33 16.1 °F 9.8 °F 1029.3 in SW 18.5 mph 18.5 mph 66 % 0.0 in 0.0 W/m2 CLR
23:38 16.1 °F 9.8 °F 1029.0 in SSW 22.2 mph 22.2 mph 66 % 0.0 in 0.0 W/m2 CLR
23:43 16.1 °F 9.5 °F 1029.0 in South 31.5 mph 31.5 mph 65 % 0.0 in 0.0 W/m2 CLR
23:48 16.1 °F 9.5 °F 1029.0 in SW 22.2 mph 22.2 mph 65 % 0.0 in 0.0 W/m2 CLR
23:53 16.1 °F 9.5 °F 1029.0 in SSW 16.7 mph 16.7 mph 65 % 0.0 in 0.0 W/m2 CLR
23:54 16.1 °F 9.5 °F 1029.0 in South 18.5 mph 18.5 mph 65 % 0.0 in 0.0 W/m2 CLR
23:59 15.6 °F 9.2 °F 1029.0 in South 20.4 mph 20.4 mph 66 % 0.0 in 0.0 W/m2 CLR
Lo Temps de Massalio
Compliments of Weather Underground - 1.25 mb